sensor_id;sensor_type;location;lat;lon;timestamp;P1;durP1;ratioP1;P2;durP2;ratioP2
12660;SDS011;39039;51.802;5.710;2022-09-09T00:00:17;8.20;;;2.87;;
12660;SDS011;39039;51.802;5.710;2022-09-09T00:02:45;12.80;;;3.70;;
12660;SDS011;39039;51.802;5.710;2022-09-09T00:05:20;5.93;;;3.10;;
12660;SDS011;39039;51.802;5.710;2022-09-09T00:07:55;5.23;;;3.30;;
12660;SDS011;39039;51.802;5.710;2022-09-09T00:10:29;3.87;;;3.00;;
12660;SDS011;39039;51.802;5.710;2022-09-09T00:13:01;4.27;;;2.70;;
12660;SDS011;39039;51.802;5.710;2022-09-09T00:15:43;4.00;;;2.67;;
12660;SDS011;39039;51.802;5.710;2022-09-09T00:18:21;4.13;;;2.63;;
12660;SDS011;39039;51.802;5.710;2022-09-09T00:20:54;4.60;;;2.50;;
12660;SDS011;39039;51.802;5.710;2022-09-09T00:23:25;5.00;;;2.40;;
12660;SDS011;39039;51.802;5.710;2022-09-09T00:25:58;3.87;;;2.30;;
12660;SDS011;39039;51.802;5.710;2022-09-09T00:28:31;4.60;;;2.10;;
12660;SDS011;39039;51.802;5.710;2022-09-09T00:31:07;3.07;;;2.27;;
12660;SDS011;39039;51.802;5.710;2022-09-09T00:33:38;4.17;;;2.50;;
12660;SDS011;39039;51.802;5.710;2022-09-09T00:36:09;4.80;;;2.10;;
12660;SDS011;39039;51.802;5.710;2022-09-09T00:38:41;5.70;;;2.70;;
12660;SDS011;39039;51.802;5.710;2022-09-09T00:41:14;3.97;;;2.07;;
12660;SDS011;39039;51.802;5.710;2022-09-09T00:43:46;6.40;;;2.83;;
12660;SDS011;39039;51.802;5.710;2022-09-09T00:46:30;7.27;;;2.50;;
12660;SDS011;39039;51.802;5.710;2022-09-09T00:49:11;2.70;;;2.17;;
12660;SDS011;39039;51.802;5.710;2022-09-09T00:51:46;2.50;;;2.00;;
12660;SDS011;39039;51.802;5.710;2022-09-09T00:54:25;3.80;;;2.40;;
12660;SDS011;39039;51.802;5.710;2022-09-09T00:57:01;3.67;;;2.40;;
12660;SDS011;39039;51.802;5.710;2022-09-09T00:59:40;5.07;;;2.57;;
12660;SDS011;39039;51.802;5.710;2022-09-09T01:02:16;4.63;;;2.90;;
12660;SDS011;39039;51.802;5.710;2022-09-09T01:04:51;4.70;;;2.67;;
12660;SDS011;39039;51.802;5.710;2022-09-09T01:07:19;5.90;;;2.70;;
12660;SDS011;39039;51.802;5.710;2022-09-09T01:09:54;3.97;;;2.73;;
12660;SDS011;39039;51.802;5.710;2022-09-09T01:12:24;8.50;;;3.23;;
12660;SDS011;39039;51.802;5.710;2022-09-09T01:14:56;5.17;;;2.90;;
12660;SDS011;39039;51.802;5.710;2022-09-09T01:17:31;6.90;;;2.87;;
12660;SDS011;39039;51.802;5.710;2022-09-09T01:20:04;4.50;;;2.73;;
12660;SDS011;39039;51.802;5.710;2022-09-09T01:22:40;6.77;;;3.00;;
12660;SDS011;39039;51.802;5.710;2022-09-09T01:25:22;5.43;;;3.03;;
12660;SDS011;39039;51.802;5.710;2022-09-09T01:27:56;4.57;;;3.10;;
12660;SDS011;39039;51.802;5.710;2022-09-09T01:30:26;6.80;;;2.80;;
12660;SDS011;39039;51.802;5.710;2022-09-09T01:32:54;5.43;;;3.10;;
12660;SDS011;39039;51.802;5.710;2022-09-09T01:35:28;3.97;;;2.83;;
12660;SDS011;39039;51.802;5.710;2022-09-09T01:38:07;4.07;;;3.10;;
12660;SDS011;39039;51.802;5.710;2022-09-09T01:40:35;3.67;;;2.90;;
12660;SDS011;39039;51.802;5.710;2022-09-09T01:43:03;4.90;;;3.40;;
12660;SDS011;39039;51.802;5.710;2022-09-09T01:45:31;5.20;;;3.47;;
12660;SDS011;39039;51.802;5.710;2022-09-09T01:47:58;6.17;;;3.03;;
12660;SDS011;39039;51.802;5.710;2022-09-09T01:50:27;6.03;;;3.33;;
12660;SDS011;39039;51.802;5.710;2022-09-09T01:52:55;6.10;;;3.50;;
12660;SDS011;39039;51.802;5.710;2022-09-09T01:55:28;5.10;;;3.23;;
12660;SDS011;39039;51.802;5.710;2022-09-09T01:57:59;6.13;;;3.23;;
12660;SDS011;39039;51.802;5.710;2022-09-09T02:00:44;8.37;;;3.57;;
12660;SDS011;39039;51.802;5.710;2022-09-09T02:03:21;3.97;;;3.00;;
12660;SDS011;39039;51.802;5.710;2022-09-09T02:05:55;5.90;;;2.90;;
12660;SDS011;39039;51.802;5.710;2022-09-09T02:08:29;5.90;;;2.73;;
12660;SDS011;39039;51.802;5.710;2022-09-09T02:11:06;3.70;;;2.60;;
12660;SDS011;39039;51.802;5.710;2022-09-09T02:13:39;7.10;;;3.03;;
12660;SDS011;39039;51.802;5.710;2022-09-09T02:16:07;7.60;;;3.27;;
12660;SDS011;39039;51.802;5.710;2022-09-09T02:18:38;5.30;;;2.90;;
12660;SDS011;39039;51.802;5.710;2022-09-09T02:21:09;6.33;;;2.80;;
12660;SDS011;39039;51.802;5.710;2022-09-09T02:23:38;5.17;;;3.00;;
12660;SDS011;39039;51.802;5.710;2022-09-09T02:26:07;4.17;;;3.03;;
12660;SDS011;39039;51.802;5.710;2022-09-09T02:28:36;4.50;;;3.10;;
12660;SDS011;39039;51.802;5.710;2022-09-09T02:31:05;6.70;;;3.30;;
12660;SDS011;39039;51.802;5.710;2022-09-09T02:33:33;6.77;;;3.10;;
12660;SDS011;39039;51.802;5.710;2022-09-09T02:36:05;3.80;;;3.07;;
12660;SDS011;39039;51.802;5.710;2022-09-09T02:38:36;3.87;;;2.90;;
12660;SDS011;39039;51.802;5.710;2022-09-09T02:41:15;6.77;;;3.40;;
12660;SDS011;39039;51.802;5.710;2022-09-09T02:43:43;4.50;;;2.70;;
12660;SDS011;39039;51.802;5.710;2022-09-09T02:46:14;6.60;;;3.00;;
12660;SDS011;39039;51.802;5.710;2022-09-09T02:48:58;12.60;;;3.23;;
12660;SDS011;39039;51.802;5.710;2022-09-09T02:51:29;5.00;;;3.20;;
12660;SDS011;39039;51.802;5.710;2022-09-09T02:54:06;5.73;;;3.20;;
12660;SDS011;39039;51.802;5.710;2022-09-09T02:56:39;8.40;;;3.23;;
12660;SDS011;39039;51.802;5.710;2022-09-09T02:59:10;5.73;;;3.27;;
12660;SDS011;39039;51.802;5.710;2022-09-09T03:01:37;8.07;;;3.47;;
12660;SDS011;39039;51.802;5.710;2022-09-09T03:04:05;6.50;;;3.43;;
12660;SDS011;39039;51.802;5.710;2022-09-09T03:06:32;6.63;;;3.30;;
12660;SDS011;39039;51.802;5.710;2022-09-09T03:09:00;3.90;;;3.07;;
12660;SDS011;39039;51.802;5.710;2022-09-09T03:11:28;7.37;;;3.57;;
12660;SDS011;39039;51.802;5.710;2022-09-09T03:13:55;7.73;;;2.90;;
12660;SDS011;39039;51.802;5.710;2022-09-09T03:16:23;6.07;;;3.57;;
12660;SDS011;39039;51.802;5.710;2022-09-09T03:18:50;5.60;;;2.67;;
12660;SDS011;39039;51.802;5.710;2022-09-09T03:21:17;4.43;;;3.53;;
12660;SDS011;39039;51.802;5.710;2022-09-09T03:23:44;6.37;;;3.27;;
12660;SDS011;39039;51.802;5.710;2022-09-09T03:26:13;5.87;;;3.50;;
12660;SDS011;39039;51.802;5.710;2022-09-09T03:28:40;6.77;;;3.30;;
12660;SDS011;39039;51.802;5.710;2022-09-09T03:31:08;4.77;;;3.40;;
12660;SDS011;39039;51.802;5.710;2022-09-09T03:33:36;5.90;;;3.17;;
12660;SDS011;39039;51.802;5.710;2022-09-09T03:36:03;11.77;;;4.10;;
12660;SDS011;39039;51.802;5.710;2022-09-09T03:38:30;12.70;;;4.40;;
12660;SDS011;39039;51.802;5.710;2022-09-09T03:40:58;7.43;;;3.90;;
12660;SDS011;39039;51.802;5.710;2022-09-09T03:43:27;5.83;;;3.37;;
12660;SDS011;39039;51.802;5.710;2022-09-09T03:45:54;6.27;;;3.80;;
12660;SDS011;39039;51.802;5.710;2022-09-09T03:48:22;7.73;;;3.73;;
12660;SDS011;39039;51.802;5.710;2022-09-09T03:50:51;7.87;;;3.97;;
12660;SDS011;39039;51.802;5.710;2022-09-09T03:53:19;10.77;;;4.37;;
12660;SDS011;39039;51.802;5.710;2022-09-09T03:55:48;8.23;;;3.50;;
12660;SDS011;39039;51.802;5.710;2022-09-09T03:58:17;9.17;;;4.00;;
12660;SDS011;39039;51.802;5.710;2022-09-09T04:00:52;7.23;;;3.47;;
12660;SDS011;39039;51.802;5.710;2022-09-09T04:03:19;5.73;;;3.40;;
12660;SDS011;39039;51.802;5.710;2022-09-09T04:05:48;7.87;;;4.50;;
12660;SDS011;39039;51.802;5.710;2022-09-09T04:08:16;7.07;;;3.60;;
12660;SDS011;39039;51.802;5.710;2022-09-09T04:10:44;7.57;;;3.70;;
12660;SDS011;39039;51.802;5.710;2022-09-09T04:13:11;6.77;;;3.70;;
12660;SDS011;39039;51.802;5.710;2022-09-09T04:15:41;8.40;;;3.73;;
12660;SDS011;39039;51.802;5.710;2022-09-09T04:18:08;9.57;;;3.70;;
12660;SDS011;39039;51.802;5.710;2022-09-09T04:20:35;7.90;;;4.13;;
12660;SDS011;39039;51.802;5.710;2022-09-09T04:23:02;8.60;;;3.93;;
12660;SDS011;39039;51.802;5.710;2022-09-09T04:25:31;8.57;;;3.70;;
12660;SDS011;39039;51.802;5.710;2022-09-09T04:27:59;7.97;;;3.60;;
12660;SDS011;39039;51.802;5.710;2022-09-09T04:30:27;6.50;;;3.73;;
12660;SDS011;39039;51.802;5.710;2022-09-09T04:32:54;6.43;;;4.10;;
12660;SDS011;39039;51.802;5.710;2022-09-09T04:35:22;8.83;;;3.73;;
12660;SDS011;39039;51.802;5.710;2022-09-09T04:37:49;12.53;;;4.23;;
12660;SDS011;39039;51.802;5.710;2022-09-09T04:40:17;6.97;;;3.60;;
12660;SDS011;39039;51.802;5.710;2022-09-09T04:42:45;6.57;;;3.80;;
12660;SDS011;39039;51.802;5.710;2022-09-09T04:45:13;8.53;;;3.40;;
12660;SDS011;39039;51.802;5.710;2022-09-09T04:47:40;5.50;;;3.30;;
12660;SDS011;39039;51.802;5.710;2022-09-09T04:52:33;7.17;;;3.60;;
12660;SDS011;39039;51.802;5.710;2022-09-09T04:55:00;7.53;;;3.37;;
12660;SDS011;39039;51.802;5.710;2022-09-09T04:57:27;8.23;;;3.23;;
12660;SDS011;39039;51.802;5.710;2022-09-09T04:59:58;5.10;;;2.90;;
12660;SDS011;39039;51.802;5.710;2022-09-09T05:02:27;9.57;;;3.70;;
12660;SDS011;39039;51.802;5.710;2022-09-09T05:04:55;6.00;;;3.03;;
12660;SDS011;39039;51.802;5.710;2022-09-09T05:07:21;8.20;;;3.37;;
12660;SDS011;39039;51.802;5.710;2022-09-09T05:09:49;6.33;;;3.30;;
12660;SDS011;39039;51.802;5.710;2022-09-09T05:12:16;3.87;;;2.90;;
12660;SDS011;39039;51.802;5.710;2022-09-09T05:14:43;7.50;;;3.23;;
12660;SDS011;39039;51.802;5.710;2022-09-09T05:17:11;4.73;;;2.77;;
12660;SDS011;39039;51.802;5.710;2022-09-09T05:19:38;6.03;;;3.20;;
12660;SDS011;39039;51.802;5.710;2022-09-09T05:22:05;5.43;;;2.97;;
12660;SDS011;39039;51.802;5.710;2022-09-09T05:24:32;4.90;;;3.13;;
12660;SDS011;39039;51.802;5.710;2022-09-09T05:26:59;9.13;;;2.77;;
12660;SDS011;39039;51.802;5.710;2022-09-09T05:29:27;5.63;;;2.90;;
12660;SDS011;39039;51.802;5.710;2022-09-09T05:31:54;5.83;;;2.40;;
12660;SDS011;39039;51.802;5.710;2022-09-09T05:34:23;6.97;;;2.83;;
12660;SDS011;39039;51.802;5.710;2022-09-09T05:36:49;7.73;;;2.87;;
12660;SDS011;39039;51.802;5.710;2022-09-09T05:39:17;6.37;;;2.60;;
12660;SDS011;39039;51.802;5.710;2022-09-09T05:41:44;8.20;;;2.80;;
12660;SDS011;39039;51.802;5.710;2022-09-09T05:44:10;6.80;;;2.77;;
12660;SDS011;39039;51.802;5.710;2022-09-09T05:46:38;8.13;;;2.90;;
12660;SDS011;39039;51.802;5.710;2022-09-09T05:49:05;7.50;;;2.57;;
12660;SDS011;39039;51.802;5.710;2022-09-09T05:51:34;6.93;;;2.63;;
12660;SDS011;39039;51.802;5.710;2022-09-09T05:54:01;8.97;;;2.70;;
12660;SDS011;39039;51.802;5.710;2022-09-09T05:56:28;11.50;;;3.50;;
12660;SDS011;39039;51.802;5.710;2022-09-09T05:58:58;5.53;;;2.40;;
12660;SDS011;39039;51.802;5.710;2022-09-09T06:01:26;6.53;;;2.47;;
12660;SDS011;39039;51.802;5.710;2022-09-09T06:03:55;7.70;;;2.40;;
12660;SDS011;39039;51.802;5.710;2022-09-09T06:06:23;7.33;;;2.60;;
12660;SDS011;39039;51.802;5.710;2022-09-09T06:08:53;4.97;;;2.33;;
12660;SDS011;39039;51.802;5.710;2022-09-09T06:11:23;9.17;;;2.23;;
12660;SDS011;39039;51.802;5.710;2022-09-09T06:13:51;3.97;;;2.17;;
12660;SDS011;39039;51.802;5.710;2022-09-09T06:16:20;3.70;;;2.30;;
12660;SDS011;39039;51.802;5.710;2022-09-09T06:18:48;7.13;;;2.63;;
12660;SDS011;39039;51.802;5.710;2022-09-09T06:21:16;7.83;;;2.37;;
12660;SDS011;39039;51.802;5.710;2022-09-09T06:23:44;5.73;;;2.70;;
12660;SDS011;39039;51.802;5.710;2022-09-09T06:26:14;7.97;;;1.90;;
12660;SDS011;39039;51.802;5.710;2022-09-09T06:28:43;3.33;;;2.23;;
12660;SDS011;39039;51.802;5.710;2022-09-09T06:31:11;8.83;;;3.10;;
12660;SDS011;39039;51.802;5.710;2022-09-09T06:33:39;5.47;;;2.20;;
12660;SDS011;39039;51.802;5.710;2022-09-09T06:36:07;12.77;;;2.63;;
12660;SDS011;39039;51.802;5.710;2022-09-09T06:38:37;7.50;;;2.40;;
12660;SDS011;39039;51.802;5.710;2022-09-09T06:41:04;6.47;;;2.27;;
12660;SDS011;39039;51.802;5.710;2022-09-09T06:43:33;2.90;;;2.03;;
12660;SDS011;39039;51.802;5.710;2022-09-09T06:46:00;4.60;;;2.53;;
12660;SDS011;39039;51.802;5.710;2022-09-09T06:48:28;6.40;;;2.47;;
12660;SDS011;39039;51.802;5.710;2022-09-09T06:51:02;6.20;;;2.00;;
12660;SDS011;39039;51.802;5.710;2022-09-09T06:53:31;3.50;;;1.97;;
12660;SDS011;39039;51.802;5.710;2022-09-09T06:55:59;4.50;;;2.37;;
12660;SDS011;39039;51.802;5.710;2022-09-09T06:58:27;4.97;;;2.03;;
12660;SDS011;39039;51.802;5.710;2022-09-09T07:01:02;10.30;;;2.87;;
12660;SDS011;39039;51.802;5.710;2022-09-09T07:03:29;6.37;;;2.40;;
12660;SDS011;39039;51.802;5.710;2022-09-09T07:05:56;6.27;;;2.43;;
12660;SDS011;39039;51.802;5.710;2022-09-09T07:08:24;4.57;;;2.37;;
12660;SDS011;39039;51.802;5.710;2022-09-09T07:10:51;9.10;;;2.27;;
12660;SDS011;39039;51.802;5.710;2022-09-09T07:13:19;6.63;;;2.23;;
12660;SDS011;39039;51.802;5.710;2022-09-09T07:15:49;6.13;;;2.67;;
12660;SDS011;39039;51.802;5.710;2022-09-09T07:18:17;6.23;;;2.53;;
12660;SDS011;39039;51.802;5.710;2022-09-09T07:20:52;5.60;;;2.07;;
12660;SDS011;39039;51.802;5.710;2022-09-09T07:23:19;4.27;;;2.30;;
12660;SDS011;39039;51.802;5.710;2022-09-09T07:25:45;8.47;;;2.20;;
12660;SDS011;39039;51.802;5.710;2022-09-09T07:28:13;4.83;;;2.73;;
12660;SDS011;39039;51.802;5.710;2022-09-09T07:30:40;7.40;;;2.47;;
12660;SDS011;39039;51.802;5.710;2022-09-09T07:33:07;9.37;;;2.30;;
12660;SDS011;39039;51.802;5.710;2022-09-09T07:35:36;6.80;;;2.42;;
12660;SDS011;39039;51.802;5.710;2022-09-09T07:38:03;11.88;;;2.50;;
12660;SDS011;39039;51.802;5.710;2022-09-09T07:40:31;5.20;;;1.95;;
12660;SDS011;39039;51.802;5.710;2022-09-09T07:42:58;6.27;;;2.10;;
12660;SDS011;39039;51.802;5.710;2022-09-09T07:45:25;9.67;;;2.73;;
12660;SDS011;39039;51.802;5.710;2022-09-09T07:47:53;6.60;;;2.23;;
12660;SDS011;39039;51.802;5.710;2022-09-09T07:50:21;5.55;;;2.20;;
12660;SDS011;39039;51.802;5.710;2022-09-09T07:52:50;7.55;;;2.00;;
12660;SDS011;39039;51.802;5.710;2022-09-09T07:55:18;6.40;;;1.92;;
12660;SDS011;39039;51.802;5.710;2022-09-09T07:57:45;6.45;;;2.40;;
12660;SDS011;39039;51.802;5.710;2022-09-09T08:00:12;7.13;;;2.17;;
12660;SDS011;39039;51.802;5.710;2022-09-09T08:02:40;5.15;;;1.52;;
12660;SDS011;39039;51.802;5.710;2022-09-09T08:05:07;5.32;;;1.52;;
12660;SDS011;39039;51.802;5.710;2022-09-09T08:07:34;9.20;;;1.95;;
12660;SDS011;39039;51.802;5.710;2022-09-09T08:10:03;4.20;;;1.17;;
12660;SDS011;39039;51.802;5.710;2022-09-09T08:12:31;8.32;;;1.80;;
12660;SDS011;39039;51.802;5.710;2022-09-09T08:14:59;5.38;;;1.65;;
12660;SDS011;39039;51.802;5.710;2022-09-09T08:17:26;6.05;;;1.40;;
12660;SDS011;39039;51.802;5.710;2022-09-09T08:19:53;6.30;;;1.58;;
12660;SDS011;39039;51.802;5.710;2022-09-09T08:22:20;5.32;;;1.35;;
12660;SDS011;39039;51.802;5.710;2022-09-09T08:24:47;6.85;;;1.40;;
12660;SDS011;39039;51.802;5.710;2022-09-09T08:27:15;4.35;;;1.10;;
12660;SDS011;39039;51.802;5.710;2022-09-09T08:29:42;9.65;;;1.58;;
12660;SDS011;39039;51.802;5.710;2022-09-09T08:32:09;3.50;;;1.30;;
12660;SDS011;39039;51.802;5.710;2022-09-09T08:34:36;4.30;;;1.10;;
12660;SDS011;39039;51.802;5.710;2022-09-09T08:37:03;5.03;;;1.30;;
12660;SDS011;39039;51.802;5.710;2022-09-09T08:39:30;2.40;;;1.00;;
12660;SDS011;39039;51.802;5.710;2022-09-09T08:45:11;4.45;;;1.17;;
12660;SDS011;39039;51.802;5.710;2022-09-09T08:47:47;6.70;;;2.33;;
12660;SDS011;39039;51.802;5.710;2022-09-09T08:50:22;2.30;;;1.25;;
12660;SDS011;39039;51.802;5.710;2022-09-09T08:52:53;4.88;;;1.02;;
12660;SDS011;39039;51.802;5.710;2022-09-09T08:55:27;5.68;;;1.30;;
12660;SDS011;39039;51.802;5.710;2022-09-09T08:58:04;5.05;;;1.40;;
12660;SDS011;39039;51.802;5.710;2022-09-09T09:00:39;4.55;;;1.42;;
12660;SDS011;39039;51.802;5.710;2022-09-09T09:03:15;6.13;;;0.98;;
12660;SDS011;39039;51.802;5.710;2022-09-09T09:05:51;4.32;;;1.20;;
12660;SDS011;39039;51.802;5.710;2022-09-09T09:08:26;9.10;;;1.30;;
12660;SDS011;39039;51.802;5.710;2022-09-09T09:10:57;8.00;;;1.20;;
12660;SDS011;39039;51.802;5.710;2022-09-09T09:13:30;4.10;;;1.20;;
12660;SDS011;39039;51.802;5.710;2022-09-09T09:16:02;7.93;;;1.45;;
12660;SDS011;39039;51.802;5.710;2022-09-09T09:18:35;3.35;;;1.08;;
12660;SDS011;39039;51.802;5.710;2022-09-09T09:21:03;4.88;;;1.30;;
12660;SDS011;39039;51.802;5.710;2022-09-09T09:23:39;7.10;;;1.05;;
12660;SDS011;39039;51.802;5.710;2022-09-09T09:26:11;6.82;;;1.15;;
12660;SDS011;39039;51.802;5.710;2022-09-09T09:28:40;7.22;;;1.20;;
12660;SDS011;39039;51.802;5.710;2022-09-09T09:31:08;6.57;;;1.63;;
12660;SDS011;39039;51.802;5.710;2022-09-09T09:33:38;2.80;;;1.05;;
12660;SDS011;39039;51.802;5.710;2022-09-09T09:36:12;6.07;;;0.98;;
12660;SDS011;39039;51.802;5.710;2022-09-09T09:38:40;4.38;;;1.00;;
12660;SDS011;39039;51.802;5.710;2022-09-09T09:41:28;6.85;;;1.05;;
12660;SDS011;39039;51.802;5.710;2022-09-09T09:43:57;4.30;;;1.13;;
12660;SDS011;39039;51.802;5.710;2022-09-09T09:46:25;5.22;;;1.35;;
12660;SDS011;39039;51.802;5.710;2022-09-09T09:48:56;5.10;;;1.05;;
12660;SDS011;39039;51.802;5.710;2022-09-09T09:51:24;3.20;;;1.00;;
12660;SDS011;39039;51.802;5.710;2022-09-09T09:53:52;6.00;;;1.20;;
12660;SDS011;39039;51.802;5.710;2022-09-09T09:56:26;6.20;;;1.33;;
12660;SDS011;39039;51.802;5.710;2022-09-09T09:58:54;8.02;;;1.10;;
12660;SDS011;39039;51.802;5.710;2022-09-09T10:01:23;3.72;;;1.02;;
12660;SDS011;39039;51.802;5.710;2022-09-09T10:03:52;3.83;;;1.10;;
12660;SDS011;39039;51.802;5.710;2022-09-09T10:06:29;5.47;;;0.98;;
12660;SDS011;39039;51.802;5.710;2022-09-09T10:08:56;4.03;;;1.00;;
12660;SDS011;39039;51.802;5.710;2022-09-09T10:11:33;6.70;;;1.48;;
12660;SDS011;39039;51.802;5.710;2022-09-09T10:14:12;4.10;;;1.20;;
12660;SDS011;39039;51.802;5.710;2022-09-09T10:16:50;2.72;;;0.93;;
12660;SDS011;39039;51.802;5.710;2022-09-09T10:19:29;3.55;;;0.88;;
12660;SDS011;39039;51.802;5.710;2022-09-09T10:22:02;5.38;;;0.95;;
12660;SDS011;39039;51.802;5.710;2022-09-09T10:27:34;2.13;;;0.95;;
12660;SDS011;39039;51.802;5.710;2022-09-09T10:30:11;3.95;;;1.67;;
12660;SDS011;39039;51.802;5.710;2022-09-09T10:32:47;5.43;;;1.10;;
12660;SDS011;39039;51.802;5.710;2022-09-09T10:35:25;4.63;;;1.00;;
12660;SDS011;39039;51.802;5.710;2022-09-09T10:38:14;5.82;;;1.80;;
12660;SDS011;39039;51.802;5.710;2022-09-09T10:40:43;2.70;;;0.88;;
12660;SDS011;39039;51.802;5.710;2022-09-09T10:43:37;4.53;;;1.40;;
12660;SDS011;39039;51.802;5.710;2022-09-09T10:46:23;5.30;;;1.55;;
12660;SDS011;39039;51.802;5.710;2022-09-09T10:49:05;5.80;;;1.33;;
12660;SDS011;39039;51.802;5.710;2022-09-09T10:51:44;3.63;;;1.05;;
12660;SDS011;39039;51.802;5.710;2022-09-09T10:54:24;1.77;;;0.90;;
12660;SDS011;39039;51.802;5.710;2022-09-09T10:57:07;3.33;;;1.27;;
12660;SDS011;39039;51.802;5.710;2022-09-09T10:59:39;3.65;;;1.20;;
12660;SDS011;39039;51.802;5.710;2022-09-09T11:02:12;3.38;;;1.35;;
12660;SDS011;39039;51.802;5.710;2022-09-09T11:04:44;5.55;;;1.20;;
12660;SDS011;39039;51.802;5.710;2022-09-09T11:07:16;3.97;;;1.40;;
12660;SDS011;39039;51.802;5.710;2022-09-09T11:09:52;5.80;;;1.67;;
12660;SDS011;39039;51.802;5.710;2022-09-09T11:12:24;5.80;;;1.40;;
12660;SDS011;39039;51.802;5.710;2022-09-09T11:14:53;2.65;;;1.40;;
12660;SDS011;39039;51.802;5.710;2022-09-09T11:17:26;3.60;;;1.45;;
12660;SDS011;39039;51.802;5.710;2022-09-09T11:20:00;5.53;;;1.48;;
12660;SDS011;39039;51.802;5.710;2022-09-09T11:22:28;3.25;;;1.13;;
12660;SDS011;39039;51.802;5.710;2022-09-09T11:24:59;5.40;;;1.70;;
12660;SDS011;39039;51.802;5.710;2022-09-09T11:27:31;5.90;;;1.30;;
12660;SDS011;39039;51.802;5.710;2022-09-09T11:30:20;1.77;;;0.80;;
12660;SDS011;39039;51.802;5.710;2022-09-09T11:36:02;2.15;;;1.23;;
12660;SDS011;39039;51.802;5.710;2022-09-09T11:38:43;4.70;;;1.10;;
12660;SDS011;39039;51.802;5.710;2022-09-09T11:41:11;3.30;;;0.85;;
12660;SDS011;39039;51.802;5.710;2022-09-09T11:43:40;1.77;;;0.80;;
12660;SDS011;39039;51.802;5.710;2022-09-09T11:46:07;3.80;;;1.35;;
12660;SDS011;39039;51.802;5.710;2022-09-09T11:48:37;4.57;;;1.20;;
12660;SDS011;39039;51.802;5.710;2022-09-09T11:51:10;4.35;;;1.27;;
12660;SDS011;39039;51.802;5.710;2022-09-09T11:53:47;5.43;;;1.45;;
12660;SDS011;39039;51.802;5.710;2022-09-09T11:56:23;1.80;;;1.00;;
12660;SDS011;39039;51.802;5.710;2022-09-09T11:58:56;3.35;;;1.10;;
12660;SDS011;39039;51.802;5.710;2022-09-09T12:01:29;4.60;;;1.63;;
12660;SDS011;39039;51.802;5.710;2022-09-09T12:04:05;1.73;;;1.13;;
12660;SDS011;39039;51.802;5.710;2022-09-09T12:06:43;3.50;;;1.30;;
12660;SDS011;39039;51.802;5.710;2022-09-09T12:09:17;3.95;;;1.23;;
12660;SDS011;39039;51.802;5.710;2022-09-09T12:11:51;4.40;;;1.10;;
12660;SDS011;39039;51.802;5.710;2022-09-09T12:14:22;1.65;;;0.80;;
12660;SDS011;39039;51.802;5.710;2022-09-09T12:17:07;1.85;;;1.00;;
12660;SDS011;39039;51.802;5.710;2022-09-09T12:19:35;2.35;;;1.10;;
12660;SDS011;39039;51.802;5.710;2022-09-09T12:22:04;2.45;;;1.17;;
12660;SDS011;39039;51.802;5.710;2022-09-09T12:24:42;2.97;;;1.45;;
12660;SDS011;39039;51.802;5.710;2022-09-09T12:27:14;1.45;;;0.77;;
12660;SDS011;39039;51.802;5.710;2022-09-09T12:29:48;3.53;;;1.38;;
12660;SDS011;39039;51.802;5.710;2022-09-09T12:32:22;2.45;;;1.17;;
12660;SDS011;39039;51.802;5.710;2022-09-09T12:34:52;1.35;;;0.80;;
12660;SDS011;39039;51.802;5.710;2022-09-09T12:37:27;2.75;;;1.00;;
12660;SDS011;39039;51.802;5.710;2022-09-09T12:39:58;3.10;;;1.30;;
12660;SDS011;39039;51.802;5.710;2022-09-09T12:42:27;2.65;;;1.05;;
12660;SDS011;39039;51.802;5.710;2022-09-09T12:44:55;2.58;;;1.08;;
12660;SDS011;39039;51.802;5.710;2022-09-09T12:47:24;1.25;;;0.70;;
12660;SDS011;39039;51.802;5.710;2022-09-09T12:49:56;4.25;;;1.48;;
12660;SDS011;39039;51.802;5.710;2022-09-09T12:52:26;3.28;;;1.45;;
12660;SDS011;39039;51.802;5.710;2022-09-09T12:54:56;2.90;;;1.30;;
12660;SDS011;39039;51.802;5.710;2022-09-09T12:57:25;4.78;;;1.23;;
12660;SDS011;39039;51.802;5.710;2022-09-09T13:00:05;3.03;;;1.33;;
12660;SDS011;39039;51.802;5.710;2022-09-09T13:02:44;1.02;;;0.90;;
12660;SDS011;39039;51.802;5.710;2022-09-09T13:05:13;2.30;;;1.15;;
12660;SDS011;39039;51.802;5.710;2022-09-09T13:07:44;2.97;;;1.55;;
12660;SDS011;39039;51.802;5.710;2022-09-09T13:10:12;4.68;;;1.20;;
12660;SDS011;39039;51.802;5.710;2022-09-09T13:12:40;3.63;;;1.17;;
12660;SDS011;39039;51.802;5.710;2022-09-09T13:15:11;2.22;;;1.00;;
12660;SDS011;39039;51.802;5.710;2022-09-09T13:17:49;3.90;;;1.23;;
12660;SDS011;39039;51.802;5.710;2022-09-09T13:20:18;1.83;;;1.02;;
12660;SDS011;39039;51.802;5.710;2022-09-09T13:22:47;4.05;;;1.00;;
12660;SDS011;39039;51.802;5.710;2022-09-09T13:25:18;2.70;;;0.90;;
12660;SDS011;39039;51.802;5.710;2022-09-09T13:27:55;4.13;;;1.15;;
12660;SDS011;39039;51.802;5.710;2022-09-09T13:30:24;5.28;;;0.98;;
12660;SDS011;39039;51.802;5.710;2022-09-09T13:33:00;2.42;;;0.88;;
12660;SDS011;39039;51.802;5.710;2022-09-09T13:35:32;3.05;;;1.20;;
12660;SDS011;39039;51.802;5.710;2022-09-09T13:38:07;2.75;;;1.20;;
12660;SDS011;39039;51.802;5.710;2022-09-09T13:40:35;3.08;;;0.90;;
12660;SDS011;39039;51.802;5.710;2022-09-09T13:43:03;3.47;;;1.02;;
12660;SDS011;39039;51.802;5.710;2022-09-09T13:45:30;4.10;;;1.00;;
12660;SDS011;39039;51.802;5.710;2022-09-09T13:47:59;2.03;;;0.95;;
12660;SDS011;39039;51.802;5.710;2022-09-09T13:50:35;4.10;;;0.80;;
12660;SDS011;39039;51.802;5.710;2022-09-09T13:53:02;2.20;;;0.82;;
12660;SDS011;39039;51.802;5.710;2022-09-09T13:55:31;5.53;;;1.42;;
12660;SDS011;39039;51.802;5.710;2022-09-09T13:57:58;3.65;;;0.90;;
12660;SDS011;39039;51.802;5.710;2022-09-09T14:00:28;6.95;;;1.10;;
12660;SDS011;39039;51.802;5.710;2022-09-09T14:02:56;1.65;;;0.73;;
12660;SDS011;39039;51.802;5.710;2022-09-09T14:05:23;4.50;;;1.00;;
12660;SDS011;39039;51.802;5.710;2022-09-09T14:07:50;1.90;;;0.70;;
12660;SDS011;39039;51.802;5.710;2022-09-09T14:10:16;1.95;;;0.70;;
12660;SDS011;39039;51.802;5.710;2022-09-09T14:12:45;3.22;;;0.90;;
12660;SDS011;39039;51.802;5.710;2022-09-09T14:15:12;3.17;;;0.75;;
12660;SDS011;39039;51.802;5.710;2022-09-09T14:17:39;3.35;;;1.00;;
12660;SDS011;39039;51.802;5.710;2022-09-09T14:20:07;4.72;;;0.80;;
12660;SDS011;39039;51.802;5.710;2022-09-09T14:22:35;3.60;;;1.08;;
12660;SDS011;39039;51.802;5.710;2022-09-09T14:25:02;3.13;;;0.90;;
12660;SDS011;39039;51.802;5.710;2022-09-09T14:27:30;2.83;;;0.93;;
12660;SDS011;39039;51.802;5.710;2022-09-09T14:29:59;3.10;;;1.20;;
12660;SDS011;39039;51.802;5.710;2022-09-09T14:32:26;3.97;;;1.30;;
12660;SDS011;39039;51.802;5.710;2022-09-09T14:34:54;2.63;;;0.98;;
12660;SDS011;39039;51.802;5.710;2022-09-09T14:37:21;6.18;;;1.40;;
12660;SDS011;39039;51.802;5.710;2022-09-09T14:39:48;3.95;;;1.10;;
12660;SDS011;39039;51.802;5.710;2022-09-09T14:42:16;3.53;;;1.35;;
12660;SDS011;39039;51.802;5.710;2022-09-09T14:44:43;3.30;;;1.10;;
12660;SDS011;39039;51.802;5.710;2022-09-09T14:47:12;2.38;;;1.38;;
12660;SDS011;39039;51.802;5.710;2022-09-09T14:49:38;2.72;;;0.80;;
12660;SDS011;39039;51.802;5.710;2022-09-09T14:52:05;1.02;;;0.70;;
12660;SDS011;39039;51.802;5.710;2022-09-09T14:54:34;1.25;;;0.50;;
12660;SDS011;39039;51.802;5.710;2022-09-09T14:57:01;2.25;;;0.75;;
12660;SDS011;39039;51.802;5.710;2022-09-09T14:59:28;1.95;;;0.80;;
12660;SDS011;39039;51.802;5.710;2022-09-09T15:01:55;6.40;;;0.90;;
12660;SDS011;39039;51.802;5.710;2022-09-09T15:04:23;2.25;;;0.85;;
12660;SDS011;39039;51.802;5.710;2022-09-09T15:06:50;1.83;;;0.60;;
12660;SDS011;39039;51.802;5.710;2022-09-09T15:09:18;2.03;;;0.70;;
12660;SDS011;39039;51.802;5.710;2022-09-09T15:11:44;2.28;;;0.60;;
12660;SDS011;39039;51.802;5.710;2022-09-09T15:14:12;1.08;;;0.60;;
12660;SDS011;39039;51.802;5.710;2022-09-09T15:16:39;2.83;;;0.80;;
12660;SDS011;39039;51.802;5.710;2022-09-09T15:19:06;2.33;;;0.85;;